sensor_id;sensor_type;location;lat;lon;timestamp;temperature;humidity
18339;DHT22;9295;44.484;11.240;2023-04-10T00:01:46;11.90;99.90
18339;DHT22;9295;44.484;11.240;2023-04-10T00:04:14;11.90;99.90
18339;DHT22;9295;44.484;11.240;2023-04-10T00:06:43;11.80;99.90
18339;DHT22;9295;44.484;11.240;2023-04-10T00:09:11;11.80;99.90
18339;DHT22;9295;44.484;11.240;2023-04-10T00:11:39;11.80;99.90
18339;DHT22;9295;44.484;11.240;2023-04-10T00:14:08;11.70;99.90
18339;DHT22;9295;44.484;11.240;2023-04-10T00:16:37;11.70;99.90
18339;DHT22;9295;44.484;11.240;2023-04-10T00:19:06;11.60;99.90
18339;DHT22;9295;44.484;11.240;2023-04-10T00:21:35;11.50;99.90
18339;DHT22;9295;44.484;11.240;2023-04-10T00:24:03;11.60;99.90
18339;DHT22;9295;44.484;11.240;2023-04-10T00:26:33;11.50;99.90
18339;DHT22;9295;44.484;11.240;2023-04-10T00:29:01;11.50;99.90
18339;DHT22;9295;44.484;11.240;2023-04-10T00:31:30;11.40;99.90
18339;DHT22;9295;44.484;11.240;2023-04-10T00:34:00;11.40;99.90
18339;DHT22;9295;44.484;11.240;2023-04-10T00:36:28;11.40;99.90
18339;DHT22;9295;44.484;11.240;2023-04-10T00:38:57;11.40;99.90
18339;DHT22;9295;44.484;11.240;2023-04-10T00:41:26;11.40;99.90
18339;DHT22;9295;44.484;11.240;2023-04-10T00:43:55;11.40;99.90
18339;DHT22;9295;44.484;11.240;2023-04-10T00:46:24;11.30;99.90
18339;DHT22;9295;44.484;11.240;2023-04-10T00:48:54;11.30;99.90
18339;DHT22;9295;44.484;11.240;2023-04-10T00:51:24;11.30;99.90
18339;DHT22;9295;44.484;11.240;2023-04-10T00:53:53;11.30;99.90
18339;DHT22;9295;44.484;11.240;2023-04-10T00:56:23;11.30;99.90
18339;DHT22;9295;44.484;11.240;2023-04-10T00:58:52;11.20;99.90
18339;DHT22;9295;44.484;11.240;2023-04-10T01:01:20;11.10;99.90
18339;DHT22;9295;44.484;11.240;2023-04-10T01:03:49;11.10;99.90
18339;DHT22;9295;44.484;11.240;2023-04-10T01:06:29;11.10;99.90
18339;DHT22;9295;44.484;11.240;2023-04-10T01:09:04;11.00;99.90
18339;DHT22;9295;44.484;11.240;2023-04-10T01:11:46;11.00;99.90
18339;DHT22;9295;44.484;11.240;2023-04-10T01:14:24;10.90;99.90
18339;DHT22;9295;44.484;11.240;2023-04-10T01:16:57;10.80;99.90
18339;DHT22;9295;44.484;11.240;2023-04-10T01:19:46;10.80;99.90
18339;DHT22;9295;44.484;11.240;2023-04-10T01:22:25;10.80;99.90
18339;DHT22;9295;44.484;11.240;2023-04-10T01:25:04;10.70;99.90
18339;DHT22;9295;44.484;11.240;2023-04-10T01:27:43;10.70;99.90
18339;DHT22;9295;44.484;11.240;2023-04-10T01:30:16;10.60;99.90
18339;DHT22;9295;44.484;11.240;2023-04-10T01:32:45;10.50;99.90
18339;DHT22;9295;44.484;11.240;2023-04-10T01:35:14;10.50;99.90
18339;DHT22;9295;44.484;11.240;2023-04-10T01:37:43;10.40;99.90
18339;DHT22;9295;44.484;11.240;2023-04-10T01:40:16;10.30;99.90
18339;DHT22;9295;44.484;11.240;2023-04-10T01:42:50;10.20;99.90
18339;DHT22;9295;44.484;11.240;2023-04-10T01:45:26;10.30;99.90
18339;DHT22;9295;44.484;11.240;2023-04-10T01:47:55;10.30;99.90
18339;DHT22;9295;44.484;11.240;2023-04-10T01:50:25;10.20;99.90
18339;DHT22;9295;44.484;11.240;2023-04-10T01:52:56;10.20;99.90
18339;DHT22;9295;44.484;11.240;2023-04-10T01:55:27;10.20;99.90
18339;DHT22;9295;44.484;11.240;2023-04-10T01:58:01;10.20;99.90
18339;DHT22;9295;44.484;11.240;2023-04-10T02:00:38;10.10;99.90
18339;DHT22;9295;44.484;11.240;2023-04-10T02:03:07;10.10;99.90
18339;DHT22;9295;44.484;11.240;2023-04-10T02:05:46;10.10;99.90
18339;DHT22;9295;44.484;11.240;2023-04-10T02:08:21;10.00;99.90
18339;DHT22;9295;44.484;11.240;2023-04-10T02:10:55;10.00;99.90
18339;DHT22;9295;44.484;11.240;2023-04-10T02:13:25;9.90;99.90
18339;DHT22;9295;44.484;11.240;2023-04-10T02:15:59;9.90;99.90
18339;DHT22;9295;44.484;11.240;2023-04-10T02:18:31;9.80;99.90
18339;DHT22;9295;44.484;11.240;2023-04-10T02:21:01;9.70;99.90
18339;DHT22;9295;44.484;11.240;2023-04-10T02:23:29;9.70;99.90
18339;DHT22;9295;44.484;11.240;2023-04-10T02:25:58;9.60;99.90
18339;DHT22;9295;44.484;11.240;2023-04-10T02:28:32;9.50;99.90
18339;DHT22;9295;44.484;11.240;2023-04-10T02:31:02;9.50;99.90
18339;DHT22;9295;44.484;11.240;2023-04-10T02:33:32;9.40;99.90
18339;DHT22;9295;44.484;11.240;2023-04-10T02:36:00;9.40;99.90
18339;DHT22;9295;44.484;11.240;2023-04-10T02:38:29;9.40;99.90
18339;DHT22;9295;44.484;11.240;2023-04-10T02:40:57;9.30;99.90
18339;DHT22;9295;44.484;11.240;2023-04-10T02:43:25;9.20;99.90
18339;DHT22;9295;44.484;11.240;2023-04-10T02:45:54;9.20;99.90
18339;DHT22;9295;44.484;11.240;2023-04-10T02:48:27;9.20;99.90
18339;DHT22;9295;44.484;11.240;2023-04-10T02:51:00;9.20;99.90
18339;DHT22;9295;44.484;11.240;2023-04-10T02:53:28;9.10;99.90
18339;DHT22;9295;44.484;11.240;2023-04-10T02:55:59;9.10;99.90
18339;DHT22;9295;44.484;11.240;2023-04-10T02:58:29;9.20;99.90
18339;DHT22;9295;44.484;11.240;2023-04-10T03:00:59;9.10;99.90
18339;DHT22;9295;44.484;11.240;2023-04-10T03:03:39;9.10;99.90
18339;DHT22;9295;44.484;11.240;2023-04-10T03:06:08;9.10;99.90
18339;DHT22;9295;44.484;11.240;2023-04-10T03:08:39;9.10;99.90
18339;DHT22;9295;44.484;11.240;2023-04-10T03:11:07;9.00;99.90
18339;DHT22;9295;44.484;11.240;2023-04-10T03:13:35;9.00;99.90
18339;DHT22;9295;44.484;11.240;2023-04-10T03:16:04;9.00;99.90
18339;DHT22;9295;44.484;11.240;2023-04-10T03:18:33;9.00;99.90
18339;DHT22;9295;44.484;11.240;2023-04-10T03:21:04;9.00;99.90
18339;DHT22;9295;44.484;11.240;2023-04-10T03:23:32;8.90;99.90
18339;DHT22;9295;44.484;11.240;2023-04-10T03:26:00;8.90;99.90
18339;DHT22;9295;44.484;11.240;2023-04-10T03:28:35;8.90;99.90
18339;DHT22;9295;44.484;11.240;2023-04-10T03:31:04;8.80;99.90
18339;DHT22;9295;44.484;11.240;2023-04-10T03:33:35;8.80;99.90
18339;DHT22;9295;44.484;11.240;2023-04-10T03:36:05;8.80;99.90
18339;DHT22;9295;44.484;11.240;2023-04-10T03:38:34;8.90;99.90
18339;DHT22;9295;44.484;11.240;2023-04-10T03:41:04;8.90;99.90
18339;DHT22;9295;44.484;11.240;2023-04-10T03:43:34;9.00;99.90
18339;DHT22;9295;44.484;11.240;2023-04-10T03:46:03;9.00;99.90
18339;DHT22;9295;44.484;11.240;2023-04-10T03:48:38;9.00;99.90
18339;DHT22;9295;44.484;11.240;2023-04-10T03:51:08;9.00;99.90
18339;DHT22;9295;44.484;11.240;2023-04-10T03:53:36;9.00;99.90
18339;DHT22;9295;44.484;11.240;2023-04-10T03:56:09;8.90;99.90
18339;DHT22;9295;44.484;11.240;2023-04-10T03:58:38;8.90;99.90
18339;DHT22;9295;44.484;11.240;2023-04-10T04:01:06;8.80;99.90
18339;DHT22;9295;44.484;11.240;2023-04-10T04:03:51;8.80;99.90
18339;DHT22;9295;44.484;11.240;2023-04-10T04:06:40;8.70;99.90
18339;DHT22;9295;44.484;11.240;2023-04-10T04:09:27;8.70;99.90
18339;DHT22;9295;44.484;11.240;2023-04-10T04:12:16;8.70;99.90
18339;DHT22;9295;44.484;11.240;2023-04-10T04:15:10;8.60;99.90
18339;DHT22;9295;44.484;11.240;2023-04-10T04:17:49;8.50;99.90
18339;DHT22;9295;44.484;11.240;2023-04-10T04:20:39;8.50;99.90
18339;DHT22;9295;44.484;11.240;2023-04-10T04:23:16;8.40;99.90
18339;DHT22;9295;44.484;11.240;2023-04-10T04:26:06;8.40;99.90
18339;DHT22;9295;44.484;11.240;2023-04-10T04:28:53;8.30;99.90
18339;DHT22;9295;44.484;11.240;2023-04-10T04:31:40;8.30;99.90
18339;DHT22;9295;44.484;11.240;2023-04-10T04:34:08;8.30;99.90
18339;DHT22;9295;44.484;11.240;2023-04-10T04:36:57;8.30;99.90
18339;DHT22;9295;44.484;11.240;2023-04-10T04:39:38;8.20;99.90
18339;DHT22;9295;44.484;11.240;2023-04-10T04:42:35;8.20;99.90
18339;DHT22;9295;44.484;11.240;2023-04-10T04:45:14;8.10;99.90
18339;DHT22;9295;44.484;11.240;2023-04-10T04:48:03;8.10;99.90
18339;DHT22;9295;44.484;11.240;2023-04-10T04:50:50;8.10;99.90
18339;DHT22;9295;44.484;11.240;2023-04-10T04:53:37;8.10;99.90
18339;DHT22;9295;44.484;11.240;2023-04-10T04:56:27;8.10;99.90
18339;DHT22;9295;44.484;11.240;2023-04-10T04:59:13;8.20;99.90
18339;DHT22;9295;44.484;11.240;2023-04-10T05:02:02;8.10;99.90
18339;DHT22;9295;44.484;11.240;2023-04-10T05:04:55;8.10;99.90
18339;DHT22;9295;44.484;11.240;2023-04-10T05:07:52;8.10;99.90
18339;DHT22;9295;44.484;11.240;2023-04-10T05:10:41;8.10;99.90
18339;DHT22;9295;44.484;11.240;2023-04-10T05:13:33;8.10;99.90
18339;DHT22;9295;44.484;11.240;2023-04-10T05:16:20;8.20;99.90
18339;DHT22;9295;44.484;11.240;2023-04-10T05:19:07;8.20;99.90
18339;DHT22;9295;44.484;11.240;2023-04-10T05:22:08;8.30;99.90
18339;DHT22;9295;44.484;11.240;2023-04-10T05:25:04;8.40;99.90
18339;DHT22;9295;44.484;11.240;2023-04-10T05:27:51;8.40;99.90
18339;DHT22;9295;44.484;11.240;2023-04-10T05:30:41;8.50;99.90
18339;DHT22;9295;44.484;11.240;2023-04-10T05:33:28;8.60;99.90
18339;DHT22;9295;44.484;11.240;2023-04-10T05:36:07;8.70;99.90
18339;DHT22;9295;44.484;11.240;2023-04-10T05:38:55;8.70;99.90
18339;DHT22;9295;44.484;11.240;2023-04-10T05:41:54;8.80;99.90
18339;DHT22;9295;44.484;11.240;2023-04-10T05:44:41;8.90;99.90
18339;DHT22;9295;44.484;11.240;2023-04-10T05:47:37;9.10;99.90
18339;DHT22;9295;44.484;11.240;2023-04-10T05:50:19;9.30;99.90
18339;DHT22;9295;44.484;11.240;2023-04-10T05:53:12;9.80;99.90
18339;DHT22;9295;44.484;11.240;2023-04-10T05:56:02;12.30;99.90
18339;DHT22;9295;44.484;11.240;2023-04-10T05:58:42;15.10;99.90
18339;DHT22;9295;44.484;11.240;2023-04-10T06:01:21;17.30;99.90
18339;DHT22;9295;44.484;11.240;2023-04-10T06:04:01;19.20;99.90
18339;DHT22;9295;44.484;11.240;2023-04-10T06:06:31;20.90;99.90
18339;DHT22;9295;44.484;11.240;2023-04-10T06:08:59;22.30;99.90
18339;DHT22;9295;44.484;11.240;2023-04-10T06:11:27;22.90;96.60
18339;DHT22;9295;44.484;11.240;2023-04-10T06:13:58;23.50;94.60
18339;DHT22;9295;44.484;11.240;2023-04-10T06:16:34;24.00;92.70
18339;DHT22;9295;44.484;11.240;2023-04-10T06:19:04;24.80;90.10
18339;DHT22;9295;44.484;11.240;2023-04-10T06:21:32;25.40;84.00
18339;DHT22;9295;44.484;11.240;2023-04-10T06:24:00;26.10;78.40
18339;DHT22;9295;44.484;11.240;2023-04-10T06:26:29;26.10;74.90
18339;DHT22;9295;44.484;11.240;2023-04-10T06:28:57;26.30;73.40
18339;DHT22;9295;44.484;11.240;2023-04-10T06:31:26;26.20;69.40
18339;DHT22;9295;44.484;11.240;2023-04-10T06:33:54;26.20;67.10
18339;DHT22;9295;44.484;11.240;2023-04-10T06:36:24;26.10;67.10
18339;DHT22;9295;44.484;11.240;2023-04-10T06:38:59;26.50;65.80
18339;DHT22;9295;44.484;11.240;2023-04-10T06:41:28;26.70;63.60
18339;DHT22;9295;44.484;11.240;2023-04-10T06:44:06;27.30;62.40
18339;DHT22;9295;44.484;11.240;2023-04-10T06:46:34;27.10;60.70
18339;DHT22;9295;44.484;11.240;2023-04-10T06:49:03;26.90;60.30
18339;DHT22;9295;44.484;11.240;2023-04-10T06:51:33;26.80;59.70
18339;DHT22;9295;44.484;11.240;2023-04-10T06:54:01;27.20;58.70
18339;DHT22;9295;44.484;11.240;2023-04-10T06:56:30;27.50;58.60
18339;DHT22;9295;44.484;11.240;2023-04-10T06:58:58;27.50;57.10
18339;DHT22;9295;44.484;11.240;2023-04-10T07:01:27;27.70;56.10
18339;DHT22;9295;44.484;11.240;2023-04-10T07:03:56;27.90;55.50
18339;DHT22;9295;44.484;11.240;2023-04-10T07:06:24;28.40;54.30
18339;DHT22;9295;44.484;11.240;2023-04-10T07:08:54;28.60;53.20
18339;DHT22;9295;44.484;11.240;2023-04-10T07:11:23;28.70;52.40
18339;DHT22;9295;44.484;11.240;2023-04-10T07:13:51;28.00;51.70
18339;DHT22;9295;44.484;11.240;2023-04-10T07:16:24;28.30;51.30
18339;DHT22;9295;44.484;11.240;2023-04-10T07:18:53;28.60;51.20
18339;DHT22;9295;44.484;11.240;2023-04-10T07:21:22;28.30;50.10
18339;DHT22;9295;44.484;11.240;2023-04-10T07:23:54;27.70;50.90
18339;DHT22;9295;44.484;11.240;2023-04-10T07:26:22;25.60;52.20
18339;DHT22;9295;44.484;11.240;2023-04-10T07:28:51;25.40;53.50
18339;DHT22;9295;44.484;11.240;2023-04-10T07:31:20;24.80;55.10
18339;DHT22;9295;44.484;11.240;2023-04-10T07:33:48;25.40;53.90
18339;DHT22;9295;44.484;11.240;2023-04-10T07:36:17;25.30;53.90
18339;DHT22;9295;44.484;11.240;2023-04-10T07:38:46;25.00;55.70
18339;DHT22;9295;44.484;11.240;2023-04-10T07:41:15;26.20;54.60
18339;DHT22;9295;44.484;11.240;2023-04-10T07:43:44;26.20;53.50
18339;DHT22;9295;44.484;11.240;2023-04-10T07:46:12;24.50;54.80
18339;DHT22;9295;44.484;11.240;2023-04-10T07:48:41;23.30;56.80
18339;DHT22;9295;44.484;11.240;2023-04-10T07:51:10;23.30;56.70
18339;DHT22;9295;44.484;11.240;2023-04-10T07:53:38;23.90;57.50
18339;DHT22;9295;44.484;11.240;2023-04-10T07:56:13;24.00;55.70
18339;DHT22;9295;44.484;11.240;2023-04-10T07:58:43;24.20;55.00
18339;DHT22;9295;44.484;11.240;2023-04-10T08:01:12;24.60;55.20
18339;DHT22;9295;44.484;11.240;2023-04-10T08:03:43;25.30;54.10
18339;DHT22;9295;44.484;11.240;2023-04-10T08:06:13;23.30;55.10
18339;DHT22;9295;44.484;11.240;2023-04-10T08:08:41;24.50;55.80
18339;DHT22;9295;44.484;11.240;2023-04-10T08:11:22;24.70;54.50
18339;DHT22;9295;44.484;11.240;2023-04-10T08:13:52;24.10;54.30
18339;DHT22;9295;44.484;11.240;2023-04-10T08:16:23;24.90;53.70
18339;DHT22;9295;44.484;11.240;2023-04-10T08:18:52;24.20;52.90
18339;DHT22;9295;44.484;11.240;2023-04-10T08:21:21;23.90;51.40
18339;DHT22;9295;44.484;11.240;2023-04-10T08:23:50;23.00;51.20
18339;DHT22;9295;44.484;11.240;2023-04-10T08:26:19;22.40;52.50
18339;DHT22;9295;44.484;11.240;2023-04-10T08:28:48;21.60;53.70
18339;DHT22;9295;44.484;11.240;2023-04-10T08:31:20;20.70;55.40
18339;DHT22;9295;44.484;11.240;2023-04-10T08:33:48;19.30;58.10
18339;DHT22;9295;44.484;11.240;2023-04-10T08:36:18;19.00;59.70
18339;DHT22;9295;44.484;11.240;2023-04-10T08:38:47;18.20;61.60
18339;DHT22;9295;44.484;11.240;2023-04-10T08:41:17;17.70;63.00
18339;DHT22;9295;44.484;11.240;2023-04-10T08:43:45;18.00;65.60
18339;DHT22;9295;44.484;11.240;2023-04-10T08:46:15;18.10;66.70
18339;DHT22;9295;44.484;11.240;2023-04-10T08:48:52;17.30;67.20
18339;DHT22;9295;44.484;11.240;2023-04-10T08:51:25;17.10;70.50
18339;DHT22;9295;44.484;11.240;2023-04-10T08:54:01;16.70;72.20
18339;DHT22;9295;44.484;11.240;2023-04-10T08:56:34;16.40;74.20
18339;DHT22;9295;44.484;11.240;2023-04-10T08:59:03;16.60;75.90
18339;DHT22;9295;44.484;11.240;2023-04-10T09:01:49;16.40;76.00
18339;DHT22;9295;44.484;11.240;2023-04-10T09:04:19;15.90;78.80
18339;DHT22;9295;44.484;11.240;2023-04-10T09:06:48;15.50;81.90
18339;DHT22;9295;44.484;11.240;2023-04-10T09:09:16;15.70;83.40
18339;DHT22;9295;44.484;11.240;2023-04-10T09:11:58;15.80;83.90
18339;DHT22;9295;44.484;11.240;2023-04-10T09:14:29;15.90;84.70
18339;DHT22;9295;44.484;11.240;2023-04-10T09:17:15;16.20;84.80
18339;DHT22;9295;44.484;11.240;2023-04-10T09:19:46;16.10;85.00
18339;DHT22;9295;44.484;11.240;2023-04-10T09:22:15;15.80;85.60
18339;DHT22;9295;44.484;11.240;2023-04-10T09:24:45;16.20;85.80
18339;DHT22;9295;44.484;11.240;2023-04-10T09:27:27;16.00;85.60
18339;DHT22;9295;44.484;11.240;2023-04-10T09:29:58;16.00;87.40
18339;DHT22;9295;44.484;11.240;2023-04-10T09:32:39;16.00;87.90
18339;DHT22;9295;44.484;11.240;2023-04-10T09:35:10;16.10;87.70
18339;DHT22;9295;44.484;11.240;2023-04-10T09:37:40;16.50;87.00
18339;DHT22;9295;44.484;11.240;2023-04-10T09:40:20;16.70;86.00
18339;DHT22;9295;44.484;11.240;2023-04-10T09:42:49;16.40;86.80
18339;DHT22;9295;44.484;11.240;2023-04-10T09:45:17;16.40;87.00
18339;DHT22;9295;44.484;11.240;2023-04-10T09:48:02;16.80;87.90
18339;DHT22;9295;44.484;11.240;2023-04-10T09:50:35;16.80;87.20
18339;DHT22;9295;44.484;11.240;2023-04-10T09:53:07;16.50;88.60
18339;DHT22;9295;44.484;11.240;2023-04-10T09:55:36;16.30;88.10
18339;DHT22;9295;44.484;11.240;2023-04-10T09:58:05;16.30;90.40
18339;DHT22;9295;44.484;11.240;2023-04-10T10:00:39;16.40;90.00
18339;DHT22;9295;44.484;11.240;2023-04-10T10:03:09;15.80;90.50
18339;DHT22;9295;44.484;11.240;2023-04-10T10:05:41;16.20;91.00
18339;DHT22;9295;44.484;11.240;2023-04-10T10:08:10;16.60;90.60
18339;DHT22;9295;44.484;11.240;2023-04-10T10:10:42;16.40;90.80
18339;DHT22;9295;44.484;11.240;2023-04-10T10:13:15;16.20;91.00
18339;DHT22;9295;44.484;11.240;2023-04-10T10:15:51;16.20;90.80
18339;DHT22;9295;44.484;11.240;2023-04-10T10:18:26;16.40;90.70
18339;DHT22;9295;44.484;11.240;2023-04-10T10:21:01;16.20;91.00
18339;DHT22;9295;44.484;11.240;2023-04-10T10:23:31;15.80;91.30
18339;DHT22;9295;44.484;11.240;2023-04-10T10:26:00;15.90;91.20
18339;DHT22;9295;44.484;11.240;2023-04-10T10:28:32;16.00;90.30
18339;DHT22;9295;44.484;11.240;2023-04-10T10:31:02;15.60;89.00
18339;DHT22;9295;44.484;11.240;2023-04-10T10:33:31;15.40;90.10
18339;DHT22;9295;44.484;11.240;2023-04-10T10:36:04;15.60;90.70
18339;DHT22;9295;44.484;11.240;2023-04-10T10:38:37;15.70;89.70
18339;DHT22;9295;44.484;11.240;2023-04-10T10:41:11;15.50;90.10
18339;DHT22;9295;44.484;11.240;2023-04-10T10:43:49;15.80;89.20
18339;DHT22;9295;44.484;11.240;2023-04-10T10:46:25;16.00;89.80
18339;DHT22;9295;44.484;11.240;2023-04-10T10:49:00;16.20;88.60
18339;DHT22;9295;44.484;11.240;2023-04-10T10:51:48;15.80;87.60
18339;DHT22;9295;44.484;11.240;2023-04-10T10:54:33;15.80;88.50
18339;DHT22;9295;44.484;11.240;2023-04-10T10:57:45;15.70;88.00
18339;DHT22;9295;44.484;11.240;2023-04-10T11:00:14;15.70;87.50
18339;DHT22;9295;44.484;11.240;2023-04-10T11:02:43;15.80;88.60
18339;DHT22;9295;44.484;11.240;2023-04-10T11:05:49;15.90;88.60
18339;DHT22;9295;44.484;11.240;2023-04-10T11:08:35;16.00;88.40
18339;DHT22;9295;44.484;11.240;2023-04-10T11:11:06;16.10;88.30
18339;DHT22;9295;44.484;11.240;2023-04-10T11:13:36;16.10;87.70
18339;DHT22;9295;44.484;11.240;2023-04-10T11:16:06;16.10;89.10
18339;DHT22;9295;44.484;11.240;2023-04-10T11:19:00;16.10;88.50
18339;DHT22;9295;44.484;11.240;2023-04-10T11:22:14;15.70;88.80
18339;DHT22;9295;44.484;11.240;2023-04-10T11:24:58;15.70;88.50
18339;DHT22;9295;44.484;11.240;2023-04-10T11:27:38;15.70;87.90
18339;DHT22;9295;44.484;11.240;2023-04-10T11:30:26;15.80;87.10
18339;DHT22;9295;44.484;11.240;2023-04-10T11:32:54;15.80;85.40
18339;DHT22;9295;44.484;11.240;2023-04-10T11:35:24;15.80;87.60
18339;DHT22;9295;44.484;11.240;2023-04-10T11:38:10;16.00;87.30
18339;DHT22;9295;44.484;11.240;2023-04-10T11:40:58;16.10;85.60
18339;DHT22;9295;44.484;11.240;2023-04-10T11:43:27;16.40;85.60
18339;DHT22;9295;44.484;11.240;2023-04-10T11:46:03;16.60;85.80
18339;DHT22;9295;44.484;11.240;2023-04-10T11:48:32;16.90;83.00
18339;DHT22;9295;44.484;11.240;2023-04-10T11:51:11;16.70;80.90
18339;DHT22;9295;44.484;11.240;2023-04-10T11:53:40;16.80;81.80
18339;DHT22;9295;44.484;11.240;2023-04-10T11:56:17;16.60;81.30
18339;DHT22;9295;44.484;11.240;2023-04-10T11:58:49;16.60;82.90
18339;DHT22;9295;44.484;11.240;2023-04-10T12:01:21;16.50;82.50
18339;DHT22;9295;44.484;11.240;2023-04-10T12:03:49;16.60;83.70
18339;DHT22;9295;44.484;11.240;2023-04-10T12:06:20;16.50;83.10
18339;DHT22;9295;44.484;11.240;2023-04-10T12:08:49;16.50;83.40
18339;DHT22;9295;44.484;11.240;2023-04-10T12:11:20;16.40;82.60
18339;DHT22;9295;44.484;11.240;2023-04-10T12:13:51;16.40;81.30
18339;DHT22;9295;44.484;11.240;2023-04-10T12:16:20;16.50;81.90
18339;DHT22;9295;44.484;11.240;2023-04-10T12:18:49;16.70;80.90
18339;DHT22;9295;44.484;11.240;2023-04-10T12:21:19;17.00;79.20
18339;DHT22;9295;44.484;11.240;2023-04-10T12:23:47;16.90;77.30
18339;DHT22;9295;44.484;11.240;2023-04-10T12:26:16;16.50;78.50
18339;DHT22;9295;44.484;11.240;2023-04-10T12:28:51;16.40;75.60
18339;DHT22;9295;44.484;11.240;2023-04-10T12:31:26;16.60;76.40
18339;DHT22;9295;44.484;11.240;2023-04-10T12:33:55;17.00;77.10
18339;DHT22;9295;44.484;11.240;2023-04-10T12:36:26;17.10;73.30
18339;DHT22;9295;44.484;11.240;2023-04-10T12:38:56;17.00;75.20
18339;DHT22;9295;44.484;11.240;2023-04-10T12:41:27;16.90;77.50
18339;DHT22;9295;44.484;11.240;2023-04-10T12:44:08;16.90;76.50
18339;DHT22;9295;44.484;11.240;2023-04-10T12:46:38;16.70;77.50
18339;DHT22;9295;44.484;11.240;2023-04-10T12:49:11;16.80;78.10
18339;DHT22;9295;44.484;11.240;2023-04-10T12:51:47;17.10;77.20
18339;DHT22;9295;44.484;11.240;2023-04-10T12:54:28;16.80;74.60
18339;DHT22;9295;44.484;11.240;2023-04-10T12:56:58;16.70;74.70
18339;DHT22;9295;44.484;11.240;2023-04-10T12:59:29;16.80;75.30
18339;DHT22;9295;44.484;11.240;2023-04-10T13:01:58;17.00;74.60
18339;DHT22;9295;44.484;11.240;2023-04-10T13:04:28;17.10;75.00
18339;DHT22;9295;44.484;11.240;2023-04-10T13:06:57;17.10;75.20
18339;DHT22;9295;44.484;11.240;2023-04-10T13:09:25;17.10;75.40
18339;DHT22;9295;44.484;11.240;2023-04-10T13:11:53;16.90;73.40
18339;DHT22;9295;44.484;11.240;2023-04-10T13:14:23;16.80;74.70
18339;DHT22;9295;44.484;11.240;2023-04-10T13:16:53;17.00;76.50
18339;DHT22;9295;44.484;11.240;2023-04-10T13:19:21;17.00;76.90
18339;DHT22;9295;44.484;11.240;2023-04-10T13:21:50;17.10;76.50
18339;DHT22;9295;44.484;11.240;2023-04-10T13:24:18;17.20;77.40
18339;DHT22;9295;44.484;11.240;2023-04-10T13:26:46;17.30;76.60
18339;DHT22;9295;44.484;11.240;2023-04-10T13:29:15;17.20;75.80
18339;DHT22;9295;44.484;11.240;2023-04-10T13:31:43;17.00;76.70
18339;DHT22;9295;44.484;11.240;2023-04-10T13:34:13;17.00;76.90
18339;DHT22;9295;44.484;11.240;2023-04-10T13:36:41;17.00;77.30
18339;DHT22;9295;44.484;11.240;2023-04-10T13:39:10;16.90;76.50
18339;DHT22;9295;44.484;11.240;2023-04-10T13:41:38;16.90;75.60
18339;DHT22;9295;44.484;11.240;2023-04-10T13:44:06;16.90;76.20
18339;DHT22;9295;44.484;11.240;2023-04-10T13:46:35;17.00;75.50
18339;DHT22;9295;44.484;11.240;2023-04-10T13:49:03;17.10;76.00
18339;DHT22;9295;44.484;11.240;2023-04-10T13:51:33;17.20;75.30
18339;DHT22;9295;44.484;11.240;2023-04-10T13:54:02;17.20;75.00
18339;DHT22;9295;44.484;11.240;2023-04-10T13:56:30;17.20;74.50
18339;DHT22;9295;44.484;11.240;2023-04-10T13:58:59;17.10;75.10
18339;DHT22;9295;44.484;11.240;2023-04-10T14:01:27;17.00;74.20
18339;DHT22;9295;44.484;11.240;2023-04-10T14:03:56;17.00;74.10
18339;DHT22;9295;44.484;11.240;2023-04-10T14:06:24;16.80;71.00
18339;DHT22;9295;44.484;11.240;2023-04-10T14:08:55;16.70;72.00
18339;DHT22;9295;44.484;11.240;2023-04-10T14:11:23;16.70;73.50
18339;DHT22;9295;44.484;11.240;2023-04-10T14:13:52;16.80;73.50
18339;DHT22;9295;44.484;11.240;2023-04-10T14:16:20;16.90;74.10
18339;DHT22;9295;44.484;11.240;2023-04-10T14:18:49;17.10;72.50
18339;DHT22;9295;44.484;11.240;2023-04-10T14:21:17;17.00;70.40
18339;DHT22;9295;44.484;11.240;2023-04-10T14:23:46;17.00;71.70
18339;DHT22;9295;44.484;11.240;2023-04-10T14:26:16;17.20;72.20
18339;DHT22;9295;44.484;11.240;2023-04-10T14:28:44;17.20;72.80
18339;DHT22;9295;44.484;11.240;2023-04-10T14:31:13;17.00;72.80
18339;DHT22;9295;44.484;11.240;2023-04-10T14:33:41;17.10;73.20
18339;DHT22;9295;44.484;11.240;2023-04-10T14:36:09;17.20;74.30
18339;DHT22;9295;44.484;11.240;2023-04-10T14:38:38;17.30;74.10
18339;DHT22;9295;44.484;11.240;2023-04-10T14:41:06;17.40;73.30
18339;DHT22;9295;44.484;11.240;2023-04-10T14:43:36;17.30;73.20
18339;DHT22;9295;44.484;11.240;2023-04-10T14:46:05;17.40;73.80
18339;DHT22;9295;44.484;11.240;2023-04-10T14:48:34;17.50;74.20
18339;DHT22;9295;44.484;11.240;2023-04-10T14:51:02;17.60;73.90
18339;DHT22;9295;44.484;11.240;2023-04-10T14:53:31;17.60;73.00
18339;DHT22;9295;44.484;11.240;2023-04-10T14:55:59;17.40;73.30
18339;DHT22;9295;44.484;11.240;2023-04-10T14:58:28;17.50;73.80
18339;DHT22;9295;44.484;11.240;2023-04-10T15:00:57;17.60;74.10
18339;DHT22;9295;44.484;11.240;2023-04-10T15:03:26;17.50;74.30
18339;DHT22;9295;44.484;11.240;2023-04-10T15:05:58;17.30;74.60
18339;DHT22;9295;44.484;11.240;2023-04-10T15:08:26;17.50;74.80
18339;DHT22;9295;44.484;11.240;2023-04-10T15:10:54;17.40;71.70
18339;DHT22;9295;44.484;11.240;2023-04-10T15:13:23;17.30;70.60
18339;DHT22;9295;44.484;11.240;2023-04-10T15:15:51;17.40;70.60
18339;DHT22;9295;44.484;11.240;2023-04-10T15:18:21;17.40;70.70
18339;DHT22;9295;44.484;11.240;2023-04-10T15:20:51;17.20;71.50
18339;DHT22;9295;44.484;11.240;2023-04-10T15:23:21;17.10;71.50
18339;DHT22;9295;44.484;11.240;2023-04-10T15:25:50;17.30;72.30
18339;DHT22;9295;44.484;11.240;2023-04-10T15:28:18;17.50;72.30
18339;DHT22;9295;44.484;11.240;2023-04-10T15:30:47;17.50;70.50
18339;DHT22;9295;44.484;11.240;2023-04-10T15:33:16;17.40;69.60
18339;DHT22;9295;44.484;11.240;2023-04-10T15:35:47;17.20;68.80
18339;DHT22;9295;44.484;11.240;2023-04-10T15:38:16;17.30;67.30
18339;DHT22;9295;44.484;11.240;2023-04-10T15:40:44;17.20;66.80
18339;DHT22;9295;44.484;11.240;2023-04-10T15:43:13;17.20;66.50
18339;DHT22;9295;44.484;11.240;2023-04-10T15:45:41;17.20;66.00
18339;DHT22;9295;44.484;11.240;2023-04-10T15:48:09;17.10;66.70
18339;DHT22;9295;44.484;11.240;2023-04-10T15:50:38;17.00;68.10
18339;DHT22;9295;44.484;11.240;2023-04-10T15:53:07;17.10;68.20
18339;DHT22;9295;44.484;11.240;2023-04-10T15:55:38;17.10;68.70
18339;DHT22;9295;44.484;11.240;2023-04-10T15:58:06;16.90;69.60
18339;DHT22;9295;44.484;11.240;2023-04-10T16:00:35;16.80;70.80
18339;DHT22;9295;44.484;11.240;2023-04-10T16:03:04;16.80;71.00
18339;DHT22;9295;44.484;11.240;2023-04-10T16:05:32;16.80;71.20
18339;DHT22;9295;44.484;11.240;2023-04-10T16:08:01;16.80;69.80
18339;DHT22;9295;44.484;11.240;2023-04-10T16:10:31;16.80;70.00
18339;DHT22;9295;44.484;11.240;2023-04-10T16:13:00;16.90;68.70